createdAt,value
2023-02-01T00:00:22.365Z,99785.60
2023-02-01T00:03:15.892Z,99775.41
2023-02-01T00:05:56.531Z,99777.20
2023-02-01T00:08:28.999Z,99778.36
2023-02-01T00:11:06.107Z,99767.20
2023-02-01T00:13:40.330Z,99769.33
2023-02-01T00:16:15.535Z,99783.02
2023-02-01T00:18:49.335Z,99783.10
2023-02-01T00:21:23.297Z,99789.25
2023-02-01T00:23:56.416Z,99791.15
2023-02-01T00:26:35.270Z,99788.24
2023-02-01T00:29:11.367Z,99785.48
2023-02-01T00:31:44.263Z,99783.92
2023-02-01T00:34:18.630Z,99776.79
2023-02-01T00:36:51.240Z,99775.56
2023-02-01T00:39:23.787Z,99780.48
2023-02-01T00:41:56.211Z,99776.10
2023-02-01T00:44:29.201Z,99784.87
2023-02-01T00:47:01.503Z,99783.04
2023-02-01T00:49:34.174Z,99792.98
2023-02-01T00:52:07.828Z,99794.61
2023-02-01T00:54:42.884Z,99796.16
2023-02-01T00:57:15.415Z,99791.22
2023-02-01T00:59:47.965Z,99789.98
2023-02-01T01:02:21.442Z,99788.77
2023-02-01T01:04:54.240Z,99797.48
2023-02-01T01:07:26.540Z,99801.08
2023-02-01T01:09:58.998Z,99800.32
2023-02-01T01:12:31.395Z,99804.94
2023-02-01T01:15:04.037Z,99776.42
2023-02-01T01:17:36.886Z,99803.00
2023-02-01T01:20:11.038Z,99807.67
2023-02-01T01:22:43.431Z,99804.70
2023-02-01T01:25:16.148Z,99800.98
2023-02-01T01:27:48.948Z,99802.20
2023-02-01T01:30:21.998Z,99803.35
2023-02-01T01:32:56.017Z,99811.96
2023-02-01T01:35:30.680Z,99805.77
2023-02-01T01:38:04.193Z,99804.80
2023-02-01T01:40:36.827Z,99794.24
2023-02-01T01:43:17.640Z,99794.20
2023-02-01T01:45:50.709Z,99787.98
2023-02-01T01:48:28.212Z,99782.36
2023-02-01T01:51:06.113Z,99794.52
2023-02-01T01:53:45.766Z,99801.02
2023-02-01T01:56:19.455Z,99790.63
2023-02-01T01:58:51.916Z,99789.17
2023-02-01T02:01:24.345Z,99784.48
2023-02-01T02:03:58.356Z,99788.58
2023-02-01T02:06:43.024Z,99786.75
2023-02-01T02:09:16.277Z,99796.40
2023-02-01T02:11:48.742Z,99801.48
2023-02-01T02:14:24.651Z,99791.71
2023-02-01T02:17:07.589Z,99789.17
2023-02-01T02:20:37.223Z,99792.46
2023-02-01T02:23:39.402Z,99781.77
2023-02-01T02:26:40.887Z,99788.92
2023-02-01T02:29:50.351Z,99789.86
2023-02-01T02:32:48.433Z,99793.06
2023-02-01T02:35:29.145Z,99807.14
2023-02-01T02:38:14.382Z,99796.56
2023-02-01T02:40:57.593Z,99794.39
2023-02-01T02:43:55.112Z,99798.71
2023-02-01T02:46:50.898Z,99794.16
2023-02-01T02:49:30.233Z,99792.55
2023-02-01T02:52:26.415Z,99796.22
2023-02-01T02:55:02.847Z,99789.71
2023-02-01T02:57:56.717Z,99789.13
2023-02-01T03:00:52.163Z,99781.02
2023-02-01T03:03:42.668Z,99777.97
2023-02-01T03:06:19.662Z,99779.40
2023-02-01T03:09:00.083Z,99780.00
2023-02-01T03:11:48.433Z,99782.41
2023-02-01T03:14:25.363Z,99779.53
2023-02-01T03:17:05.000Z,99776.86
2023-02-01T03:19:44.714Z,99778.08
2023-02-01T03:22:21.090Z,99774.05
2023-02-01T03:24:56.676Z,99775.27
2023-02-01T03:27:36.270Z,99772.34
2023-02-01T03:30:13.011Z,99777.06
2023-02-01T03:33:03.912Z,99769.14
2023-02-01T03:35:46.933Z,99770.71
2023-02-01T03:38:25.799Z,99765.61
2023-02-01T03:41:05.283Z,99765.20
2023-02-01T03:43:45.313Z,99762.95
2023-02-01T03:46:25.329Z,99768.73
2023-02-01T03:48:59.679Z,99776.00
2023-02-01T03:51:33.681Z,99771.09
2023-02-01T03:54:12.073Z,99774.64
2023-02-01T03:56:48.468Z,99762.31
2023-02-01T03:59:21.098Z,99761.14
2023-02-01T04:01:54.038Z,99756.14
2023-02-01T04:04:26.403Z,99755.44
2023-02-01T04:06:59.810Z,99751.32
2023-02-01T04:09:32.582Z,99748.35
2023-02-01T04:12:05.735Z,99759.30
2023-02-01T04:14:39.151Z,99757.02
2023-02-01T04:17:12.514Z,99755.35
2023-02-01T04:19:45.981Z,99759.45
2023-02-01T04:22:18.511Z,99756.61
2023-02-01T04:24:51.291Z,99754.70
2023-02-01T04:29:58.429Z,99740.85
2023-02-01T04:32:31.330Z,99764.11
2023-02-01T04:35:04.487Z,99736.04
2023-02-01T04:37:37.485Z,99744.79
2023-02-01T04:40:12.489Z,99750.95
2023-02-01T04:42:45.211Z,99753.17
2023-02-01T04:45:18.092Z,99755.00
2023-02-01T04:47:53.385Z,99753.51
2023-02-01T04:50:25.897Z,99749.96
2023-02-01T04:52:58.214Z,99746.59
2023-02-01T04:55:31.756Z,99745.23
2023-02-01T04:58:04.598Z,99745.23
2023-02-01T05:00:37.110Z,99750.56
2023-02-01T05:03:09.553Z,99739.17
2023-02-01T05:05:41.853Z,99749.45
2023-02-01T05:08:14.241Z,99750.36
2023-02-01T05:10:48.881Z,99753.70
2023-02-01T05:13:39.306Z,99752.41
2023-02-01T05:16:12.033Z,99752.94
2023-02-01T05:18:44.505Z,99749.14
2023-02-01T05:21:16.912Z,99748.11
2023-02-01T05:24:07.040Z,99739.95
2023-02-01T05:26:40.208Z,99751.14
2023-02-01T05:29:13.404Z,99753.29
2023-02-01T05:31:48.393Z,99744.39
2023-02-01T05:34:21.117Z,99740.45
2023-02-01T05:36:53.772Z,99744.20
2023-02-01T05:39:26.147Z,99753.88
2023-02-01T05:41:59.067Z,99747.05
2023-02-01T05:44:31.953Z,99749.27
2023-02-01T05:47:04.423Z,99745.27
2023-02-01T05:49:37.033Z,99745.50
2023-02-01T05:52:09.753Z,99748.08
2023-02-01T05:54:42.092Z,99751.39
2023-02-01T05:57:14.486Z,99750.11
2023-02-01T05:59:46.944Z,99746.08
2023-02-01T06:02:19.661Z,99749.70
2023-02-01T06:04:52.645Z,99754.40
2023-02-01T06:07:24.957Z,99759.45
2023-02-01T06:09:57.276Z,99760.05
2023-02-01T06:12:29.673Z,99759.10
2023-02-01T06:15:03.018Z,99757.22
2023-02-01T06:17:35.336Z,99745.23
2023-02-01T06:20:11.750Z,99758.58
2023-02-01T06:22:44.431Z,99756.16
2023-02-01T06:25:17.859Z,99743.69
2023-02-01T06:27:50.425Z,99755.96
2023-02-01T06:30:23.374Z,99759.82
2023-02-01T06:32:56.751Z,99759.13
2023-02-01T06:35:29.352Z,99756.20
2023-02-01T06:38:01.695Z,99760.71
2023-02-01T06:40:34.129Z,99759.96
2023-02-01T06:43:06.758Z,99762.52
2023-02-01T06:45:39.762Z,99746.59
2023-02-01T06:48:12.216Z,99764.98
2023-02-01T06:50:44.717Z,99766.12
2023-02-01T06:53:17.185Z,99762.48
2023-02-01T06:55:57.137Z,99766.59
2023-02-01T06:58:32.276Z,99768.54
2023-02-01T07:01:10.793Z,99768.39
2023-02-01T07:03:43.498Z,99763.76
2023-02-01T07:06:16.019Z,99762.64
2023-02-01T07:08:48.429Z,99768.02
2023-02-01T07:11:21.520Z,99742.58
2023-02-01T07:13:54.070Z,99766.15
2023-02-01T07:16:27.387Z,99763.69
2023-02-01T07:19:00.762Z,99766.50
2023-02-01T07:21:33.473Z,99769.22
2023-02-01T07:24:06.463Z,99766.70
2023-02-01T07:26:39.040Z,99771.39
2023-02-01T07:29:11.401Z,99775.87
2023-02-01T07:31:45.389Z,99778.23
2023-02-01T07:34:17.966Z,99777.63
2023-02-01T07:36:50.813Z,99777.56
2023-02-01T07:39:26.035Z,99776.34
2023-02-01T07:41:58.541Z,99777.63
2023-02-01T07:44:33.251Z,99759.96
2023-02-01T07:47:08.918Z,99771.05
2023-02-01T07:49:43.347Z,99772.52
2023-02-01T07:52:20.437Z,99769.70
2023-02-01T07:54:52.799Z,99772.98
2023-02-01T07:57:25.255Z,99756.45
2023-02-01T08:00:15.886Z,99773.53
2023-02-01T08:02:48.270Z,99764.70
2023-02-01T08:05:21.358Z,99770.67
2023-02-01T08:07:54.319Z,99768.91
2023-02-01T08:10:26.936Z,99771.15
2023-02-01T08:13:03.183Z,99767.13
2023-02-01T08:15:35.645Z,99759.79
2023-02-01T08:18:09.796Z,99754.95
2023-02-01T08:20:44.558Z,99762.17
2023-02-01T08:23:17.029Z,99755.63
2023-02-01T08:25:49.769Z,99751.45
2023-02-01T08:28:22.215Z,99733.82
2023-02-01T08:30:54.703Z,99717.45
2023-02-01T08:33:27.184Z,99738.55
2023-02-01T08:35:59.440Z,99736.46
2023-02-01T08:38:31.917Z,99738.39
2023-02-01T08:41:10.418Z,99736.66
2023-02-01T08:43:43.483Z,99736.38
2023-02-01T08:46:17.173Z,99736.14
2023-02-01T08:48:50.977Z,99729.64
2023-02-01T08:51:24.898Z,99727.64
2023-02-01T08:53:57.407Z,99728.75
2023-02-01T08:56:29.811Z,99726.22
2023-02-01T08:59:02.209Z,99726.77
2023-02-01T09:01:35.003Z,99734.85
2023-02-01T09:04:07.564Z,99731.73
2023-02-01T09:06:42.221Z,99735.48
2023-02-01T09:09:14.950Z,99744.08
2023-02-01T09:11:47.313Z,99748.42
2023-02-01T09:14:19.983Z,99746.92
2023-02-01T09:16:53.570Z,99757.96
2023-02-01T09:19:27.341Z,99747.00
2023-02-01T09:22:00.201Z,99745.95
2023-02-01T09:24:33.306Z,99742.75
2023-02-01T09:27:06.124Z,99746.20
2023-02-01T09:29:38.984Z,99751.09
2023-02-01T09:32:13.767Z,99741.53
2023-02-01T09:34:46.252Z,99740.22
2023-02-01T09:37:19.098Z,99742.33
2023-02-01T09:39:57.033Z,99739.41
2023-02-01T09:42:58.665Z,99740.30
2023-02-01T09:45:36.413Z,99740.13
2023-02-01T09:48:17.749Z,99722.24
2023-02-01T09:50:55.049Z,99731.42
2023-02-01T09:53:30.941Z,99736.86
2023-02-01T09:56:08.746Z,99733.38
2023-02-01T09:58:44.253Z,99733.45
2023-02-01T10:01:21.741Z,99728.88
2023-02-01T10:04:00.183Z,99728.36
2023-02-01T10:06:48.356Z,99725.61
2023-02-01T10:09:42.685Z,99692.17
2023-02-01T10:12:39.326Z,99722.47
2023-02-01T10:15:25.894Z,99720.84
2023-02-01T10:18:33.184Z,99721.62
2023-02-01T10:21:19.947Z,99718.35
2023-02-01T10:24:17.366Z,99718.41
2023-02-01T10:26:58.221Z,99718.91
2023-02-01T10:29:37.064Z,99710.85
2023-02-01T10:32:16.809Z,99710.52
2023-02-01T10:34:54.669Z,99674.60
2023-02-01T10:37:33.200Z,99701.19
2023-02-01T10:40:18.064Z,99701.30
2023-02-01T10:42:51.263Z,99703.49
2023-02-01T10:45:30.098Z,99700.40
2023-02-01T10:48:05.139Z,99701.32
2023-02-01T10:50:41.703Z,99696.30
2023-02-01T10:53:21.074Z,99701.48
2023-02-01T10:55:55.034Z,99697.02
2023-02-01T10:58:33.045Z,99694.44
2023-02-01T11:01:08.594Z,99697.13
2023-02-01T11:03:56.946Z,99691.23
2023-02-01T11:06:39.451Z,99690.09
2023-02-01T11:09:22.796Z,99689.35
2023-02-01T11:12:03.388Z,99677.76
2023-02-01T11:14:42.331Z,99683.79
2023-02-01T11:17:31.031Z,99677.79
2023-02-01T11:20:06.680Z,99672.48
2023-02-01T11:22:39.793Z,99671.21
2023-02-01T11:25:16.825Z,99668.10
2023-02-01T11:27:55.396Z,99665.90
2023-02-01T11:30:37.012Z,99667.39
2023-02-01T11:33:15.436Z,99665.23
2023-02-01T11:35:50.009Z,99665.38
2023-02-01T11:38:30.187Z,99661.27
2023-02-01T11:41:16.386Z,99657.64
2023-02-01T11:44:00.628Z,99656.41
2023-02-01T11:46:35.921Z,99655.55
2023-02-01T11:49:25.307Z,99652.66
2023-02-01T11:52:14.140Z,99650.23
2023-02-01T11:55:03.935Z,99650.81
2023-02-01T11:57:54.710Z,99651.19
2023-02-01T12:00:54.437Z,99650.30
2023-02-01T12:04:07.135Z,99652.19
2023-02-01T12:06:50.707Z,99651.10
2023-02-01T12:09:39.532Z,99649.92
2023-02-01T12:12:22.012Z,99663.76
2023-02-01T12:15:27.649Z,99659.13
2023-02-01T12:18:27.762Z,99654.02
2023-02-01T12:21:08.922Z,99655.70
2023-02-01T12:24:12.654Z,99664.86
2023-02-01T12:26:59.301Z,99660.69
2023-02-01T12:30:01.071Z,99667.60
2023-02-01T12:32:57.282Z,99660.86
2023-02-01T12:35:54.841Z,99659.13
2023-02-01T12:38:40.647Z,99652.55
2023-02-01T12:41:29.449Z,99650.48
2023-02-01T12:44:07.829Z,99650.75
2023-02-01T12:46:45.843Z,99653.98
2023-02-01T12:49:21.827Z,99657.09
2023-02-01T12:52:00.341Z,99651.20
2023-02-01T12:54:38.484Z,99656.05
2023-02-01T12:57:17.468Z,99638.91
2023-02-01T12:59:56.648Z,99648.60
2023-02-01T13:02:40.164Z,99658.49
2023-02-01T13:05:20.971Z,99663.88
2023-02-01T13:08:00.320Z,99671.48
2023-02-01T13:10:38.824Z,99665.23
2023-02-01T13:13:18.615Z,99666.91
2023-02-01T13:15:57.395Z,99671.77
2023-02-01T13:18:38.171Z,99672.63
2023-02-01T13:21:16.613Z,99670.56
2023-02-01T13:23:51.797Z,99669.17
2023-02-01T13:26:24.431Z,99671.04
2023-02-01T13:29:00.466Z,99674.53
2023-02-01T13:31:50.009Z,99666.96
2023-02-01T13:34:42.877Z,99672.61
2023-02-01T13:37:29.909Z,99663.86
2023-02-01T13:40:19.953Z,99670.52
2023-02-01T13:42:56.574Z,99669.12
2023-02-01T13:45:34.778Z,99667.69
2023-02-01T13:48:16.901Z,99668.98
2023-02-01T13:50:56.129Z,99666.39
2023-02-01T13:53:32.865Z,99663.98
2023-02-01T13:56:09.363Z,99670.95
2023-02-01T13:58:43.220Z,99675.45
2023-02-01T14:01:38.614Z,99672.56
2023-02-01T14:04:50.733Z,99662.82
2023-02-01T14:07:25.391Z,99658.65
2023-02-01T14:09:56.321Z,99663.27
2023-02-01T14:12:52.992Z,99659.34
2023-02-01T14:15:30.404Z,99662.73
2023-02-01T14:18:02.748Z,99642.66
2023-02-01T14:20:55.430Z,99654.13
2023-02-01T14:23:34.828Z,99650.10
2023-02-01T14:26:20.962Z,99632.63
2023-02-01T14:29:02.341Z,99650.56
2023-02-01T14:32:18.006Z,99653.34
2023-02-01T14:35:01.959Z,99652.98
2023-02-01T14:37:37.495Z,99655.23
2023-02-01T14:40:25.689Z,99655.58
2023-02-01T14:42:59.764Z,99653.70
2023-02-01T14:45:53.059Z,99649.95
2023-02-01T14:48:58.043Z,99644.92
2023-02-01T14:51:32.582Z,99642.50
2023-02-01T14:54:03.868Z,99648.02
2023-02-01T14:56:41.054Z,99645.73
2023-02-01T14:59:25.963Z,99654.71
2023-02-01T15:02:23.785Z,99650.55
2023-02-01T15:04:59.562Z,99643.63
2023-02-01T15:07:45.964Z,99648.10
2023-02-01T15:10:27.116Z,99649.84
2023-02-01T15:13:24.003Z,99650.68
2023-02-01T15:16:16.132Z,99649.34
2023-02-01T15:19:22.692Z,99649.04
2023-02-01T15:22:23.821Z,99646.58
2023-02-01T15:32:02.372Z,99649.86
2023-02-01T15:34:51.148Z,99653.93
2023-02-01T15:37:26.333Z,99656.27
2023-02-01T15:40:34.281Z,99652.05
2023-02-01T15:43:58.567Z,99636.55
2023-02-01T15:50:45.936Z,99644.42
2023-02-01T15:53:32.194Z,99623.03
2023-02-01T15:56:22.396Z,99647.14
2023-02-01T15:59:00.465Z,99642.53
2023-02-01T16:01:53.879Z,99646.67
2023-02-01T16:04:34.297Z,99642.46
2023-02-01T16:10:52.432Z,99643.67
2023-02-01T16:16:53.897Z,99650.13
2023-02-01T16:19:53.309Z,99653.70
2023-02-01T16:22:44.218Z,99648.15
2023-02-01T16:25:19.224Z,99638.63
2023-02-01T16:28:22.153Z,99652.52
2023-02-01T16:30:58.160Z,99652.94
2023-02-01T16:33:30.925Z,99647.61
2023-02-01T16:36:05.006Z,99628.67
2023-02-01T16:38:37.651Z,99646.37
2023-02-01T16:41:12.364Z,99640.44
2023-02-01T16:43:45.636Z,99637.39
2023-02-01T16:46:21.601Z,99626.67
2023-02-01T16:48:56.210Z,99635.20
2023-02-01T16:51:34.746Z,99636.80
2023-02-01T16:54:33.563Z,99636.84
2023-02-01T16:57:46.689Z,99634.89
2023-02-01T17:01:03.064Z,99630.30
2023-02-01T17:04:27.930Z,99634.92
2023-02-01T17:07:21.191Z,99624.43
2023-02-01T17:11:05.073Z,99623.53
2023-02-01T17:13:55.238Z,99621.45
2023-02-01T17:16:32.500Z,99621.45
2023-02-01T17:22:39.413Z,99618.33
2023-02-01T17:25:32.983Z,99622.15
2023-02-01T17:28:06.303Z,99616.04
2023-02-01T17:30:39.615Z,99612.00
2023-02-01T17:33:22.645Z,99613.40
2023-02-01T17:35:57.520Z,99613.65
2023-02-01T17:38:28.394Z,99611.56
2023-02-01T17:41:01.020Z,99616.91
2023-02-01T17:43:34.766Z,99616.73
2023-02-01T17:46:13.547Z,99609.73
2023-02-01T17:48:46.548Z,99590.32
2023-02-01T17:51:21.853Z,99598.47
2023-02-01T17:53:54.373Z,99592.45
2023-02-01T17:56:29.088Z,99583.81
2023-02-01T17:59:01.880Z,99576.86
2023-02-01T18:01:34.780Z,99559.20
2023-02-01T18:04:07.605Z,99559.00
2023-02-01T18:06:40.599Z,99568.26
2023-02-01T18:09:13.112Z,99572.37
2023-02-01T18:11:45.783Z,99586.13
2023-02-01T18:14:18.661Z,99584.57
2023-02-01T18:16:51.174Z,99581.88
2023-02-01T18:19:27.862Z,99578.84
2023-02-01T18:22:00.764Z,99567.95
2023-02-01T18:24:34.870Z,99552.83
2023-02-01T18:27:08.896Z,99544.64
2023-02-01T18:29:41.287Z,99546.33
2023-02-01T18:32:14.138Z,99534.20
2023-02-01T18:34:49.213Z,99532.36
2023-02-01T18:37:22.321Z,99532.18
2023-02-01T18:39:55.143Z,99528.55
2023-02-01T18:42:27.900Z,99528.89
2023-02-01T18:45:01.408Z,99517.48
2023-02-01T18:47:34.130Z,99531.77
2023-02-01T18:50:07.321Z,99528.70
2023-02-01T18:52:40.654Z,99518.68
2023-02-01T18:55:14.053Z,99517.41
2023-02-01T18:57:46.817Z,99518.73
2023-02-01T19:00:22.210Z,99512.84
2023-02-01T19:02:54.927Z,99515.36
2023-02-01T19:05:29.313Z,99513.16
2023-02-01T19:08:02.176Z,99518.95
2023-02-01T19:10:36.340Z,99513.02
2023-02-01T19:13:13.429Z,99519.23
2023-02-01T19:15:46.926Z,99516.73
2023-02-01T19:18:21.394Z,99509.88
2023-02-01T19:20:55.147Z,99509.75
2023-02-01T19:23:29.797Z,99499.64
2023-02-01T19:26:02.524Z,99508.74
2023-02-01T19:28:35.629Z,99483.25
2023-02-01T19:31:10.218Z,99509.79
2023-02-01T19:33:41.592Z,99507.88
2023-02-01T19:36:14.306Z,99507.08
2023-02-01T19:38:47.018Z,99508.70
2023-02-01T19:41:19.845Z,99506.90
2023-02-01T19:43:52.573Z,99508.05
2023-02-01T19:46:25.450Z,99511.73
2023-02-01T19:48:57.930Z,99511.73
2023-02-01T19:51:31.163Z,99500.27
2023-02-01T19:54:04.146Z,99511.58
2023-02-01T19:56:36.866Z,99519.73
2023-02-01T19:59:09.646Z,99523.02
2023-02-01T20:01:44.278Z,99528.02
2023-02-01T20:04:18.193Z,99528.14
2023-02-01T20:06:51.266Z,99526.81
2023-02-01T20:09:25.791Z,99532.45
2023-02-01T20:11:58.606Z,99536.48
2023-02-01T20:14:32.103Z,99539.08
2023-02-01T20:17:05.782Z,99541.54
2023-02-01T20:19:38.734Z,99541.95
2023-02-01T20:22:12.257Z,99541.50
2023-02-01T20:24:45.572Z,99547.71
2023-02-01T20:27:19.436Z,99528.20
2023-02-01T20:29:52.082Z,99549.84
2023-02-01T20:32:24.907Z,99549.97
2023-02-01T20:34:57.725Z,99550.02
2023-02-01T20:37:30.970Z,99550.98
2023-02-01T20:40:04.267Z,99553.38
2023-02-01T20:42:37.316Z,99551.98
2023-02-01T20:45:12.927Z,99552.52
2023-02-01T20:47:49.987Z,99550.77
2023-02-01T20:50:25.353Z,99554.56
2023-02-01T20:52:59.016Z,99558.80
2023-02-01T20:55:32.663Z,99554.92
2023-02-01T20:58:05.926Z,99563.94
2023-02-01T21:00:38.728Z,99563.11
2023-02-01T21:03:11.553Z,99568.91
2023-02-01T21:05:46.788Z,99565.99
2023-02-01T21:09:26.611Z,99566.64
2023-02-01T21:12:00.947Z,99566.17
2023-02-01T21:14:35.805Z,99572.94
2023-02-01T21:17:09.436Z,99574.96
2023-02-01T21:19:58.238Z,99578.08
2023-02-01T21:22:32.257Z,99580.96
2023-02-01T21:25:07.043Z,99594.97
2023-02-01T21:27:41.024Z,99590.52
2023-02-01T21:30:18.001Z,99583.77
2023-02-01T21:32:52.174Z,99590.67
2023-02-01T21:35:28.165Z,99594.36
2023-02-01T21:38:04.704Z,99596.36
2023-02-01T21:40:39.423Z,99601.52
2023-02-01T21:43:12.207Z,99604.24
2023-02-01T21:45:51.370Z,99600.70
2023-02-01T21:48:25.265Z,99606.63
2023-02-01T21:51:00.593Z,99607.23
2023-02-01T21:53:34.129Z,99607.99
2023-02-01T21:56:10.817Z,99609.27
2023-02-01T21:58:44.467Z,99610.59
2023-02-01T22:01:18.490Z,99616.09
2023-02-01T22:03:52.705Z,99616.95
2023-02-01T22:06:31.536Z,99612.96
2023-02-01T22:09:09.137Z,99621.17
2023-02-01T22:11:51.557Z,99603.38
2023-02-01T22:14:27.446Z,99622.27
2023-02-01T22:17:00.770Z,99626.65
2023-02-01T22:19:36.977Z,99625.86
2023-02-01T22:22:12.530Z,99609.42
2023-02-01T22:24:46.285Z,99623.02
2023-02-01T22:27:19.539Z,99615.23
2023-02-01T22:29:53.353Z,99631.34
2023-02-01T22:32:27.371Z,99637.39
2023-02-01T22:35:05.437Z,99635.48
2023-02-01T22:37:40.183Z,99619.92
2023-02-01T22:40:22.013Z,99638.80
2023-02-01T22:42:55.162Z,99621.67
2023-02-01T22:45:29.880Z,99637.39
2023-02-01T22:48:11.482Z,99638.31
2023-02-01T22:50:51.925Z,99630.63
2023-02-01T22:53:27.439Z,99642.45
2023-02-01T22:56:06.334Z,99634.92
2023-02-01T22:58:40.893Z,99637.70
2023-02-01T23:01:18.899Z,99630.71
2023-02-01T23:03:58.964Z,99628.44
2023-02-01T23:06:45.002Z,99637.01
2023-02-01T23:09:21.246Z,99637.59
2023-02-01T23:11:56.753Z,99625.71
2023-02-01T23:14:30.961Z,99641.16
2023-02-01T23:17:03.504Z,99640.08
2023-02-01T23:19:36.063Z,99639.92
2023-02-01T23:22:08.593Z,99641.55
2023-02-01T23:24:41.013Z,99633.94
2023-02-01T23:27:13.810Z,99642.42
2023-02-01T23:29:46.712Z,99640.55
2023-02-01T23:32:19.506Z,99639.38
2023-02-01T23:34:52.444Z,99620.17
2023-02-01T23:37:25.087Z,99628.91
2023-02-01T23:39:57.498Z,99634.73
2023-02-01T23:42:30.005Z,99633.39
2023-02-01T23:45:02.515Z,99626.85
2023-02-01T23:47:35.374Z,99630.06
2023-02-01T23:50:08.880Z,99628.82
2023-02-01T23:52:41.400Z,99631.57
2023-02-01T23:55:15.892Z,99626.87
2023-02-01T23:57:48.310Z,99627.89
